sensor_id;sensor_type;location;lat;lon;timestamp;P1;durP1;ratioP1;P2;durP2;ratioP2
1591;SDS011;789;51.612;7.510;2023-08-21T00:00:14;5.40;;;2.50;;
1591;SDS011;789;51.612;7.510;2023-08-21T00:02:41;2.90;;;2.20;;
1591;SDS011;789;51.612;7.510;2023-08-21T00:05:09;7.53;;;2.50;;
1591;SDS011;789;51.612;7.510;2023-08-21T00:07:36;4.90;;;2.30;;
1591;SDS011;789;51.612;7.510;2023-08-21T00:10:02;6.40;;;3.03;;
1591;SDS011;789;51.612;7.510;2023-08-21T00:12:32;3.83;;;2.20;;
1591;SDS011;789;51.612;7.510;2023-08-21T00:14:58;3.10;;;2.20;;
1591;SDS011;789;51.612;7.510;2023-08-21T00:17:25;6.30;;;2.27;;
1591;SDS011;789;51.612;7.510;2023-08-21T00:19:52;5.40;;;2.00;;
1591;SDS011;789;51.612;7.510;2023-08-21T00:22:19;6.87;;;2.30;;
1591;SDS011;789;51.612;7.510;2023-08-21T00:24:46;4.63;;;2.47;;
1591;SDS011;789;51.612;7.510;2023-08-21T00:27:12;5.47;;;2.60;;
1591;SDS011;789;51.612;7.510;2023-08-21T00:29:40;5.10;;;2.27;;
1591;SDS011;789;51.612;7.510;2023-08-21T00:32:07;4.27;;;1.97;;
1591;SDS011;789;51.612;7.510;2023-08-21T00:34:34;3.70;;;2.27;;
1591;SDS011;789;51.612;7.510;2023-08-21T00:37:01;5.90;;;2.13;;
1591;SDS011;789;51.612;7.510;2023-08-21T00:39:27;5.23;;;2.03;;
1591;SDS011;789;51.612;7.510;2023-08-21T00:41:54;5.07;;;2.47;;
1591;SDS011;789;51.612;7.510;2023-08-21T00:44:21;5.33;;;2.40;;
1591;SDS011;789;51.612;7.510;2023-08-21T00:46:49;3.80;;;2.03;;
1591;SDS011;789;51.612;7.510;2023-08-21T00:49:16;4.60;;;2.27;;
1591;SDS011;789;51.612;7.510;2023-08-21T00:51:43;7.30;;;2.20;;
1591;SDS011;789;51.612;7.510;2023-08-21T00:54:11;8.93;;;2.10;;
1591;SDS011;789;51.612;7.510;2023-08-21T00:56:38;8.90;;;2.10;;
1591;SDS011;789;51.612;7.510;2023-08-21T00:59:05;3.70;;;2.20;;
1591;SDS011;789;51.612;7.510;2023-08-21T01:01:32;5.13;;;2.40;;
1591;SDS011;789;51.612;7.510;2023-08-21T01:04:02;5.00;;;2.33;;
1591;SDS011;789;51.612;7.510;2023-08-21T01:06:29;5.97;;;2.30;;
1591;SDS011;789;51.612;7.510;2023-08-21T01:08:57;4.80;;;2.10;;
1591;SDS011;789;51.612;7.510;2023-08-21T01:11:31;6.20;;;2.07;;
1591;SDS011;789;51.612;7.510;2023-08-21T01:14:08;5.50;;;2.00;;
1591;SDS011;789;51.612;7.510;2023-08-21T01:16:41;6.63;;;2.13;;
1591;SDS011;789;51.612;7.510;2023-08-21T01:19:15;5.40;;;2.10;;
1591;SDS011;789;51.612;7.510;2023-08-21T01:21:51;4.73;;;2.30;;
1591;SDS011;789;51.612;7.510;2023-08-21T01:24:20;4.17;;;2.13;;
1591;SDS011;789;51.612;7.510;2023-08-21T01:26:47;4.57;;;2.20;;
1591;SDS011;789;51.612;7.510;2023-08-21T01:29:13;3.50;;;2.30;;
1591;SDS011;789;51.612;7.510;2023-08-21T01:31:40;3.87;;;2.10;;
1591;SDS011;789;51.612;7.510;2023-08-21T01:34:11;3.67;;;2.30;;
1591;SDS011;789;51.612;7.510;2023-08-21T01:36:40;4.30;;;2.40;;
1591;SDS011;789;51.612;7.510;2023-08-21T01:39:09;2.70;;;2.23;;
1591;SDS011;789;51.612;7.510;2023-08-21T01:41:40;4.97;;;1.97;;
1591;SDS011;789;51.612;7.510;2023-08-21T01:44:08;5.63;;;2.20;;
1591;SDS011;789;51.612;7.510;2023-08-21T01:46:34;5.30;;;2.30;;
1591;SDS011;789;51.612;7.510;2023-08-21T01:49:01;6.53;;;2.40;;
1591;SDS011;789;51.612;7.510;2023-08-21T01:51:28;2.73;;;1.80;;
1591;SDS011;789;51.612;7.510;2023-08-21T01:53:55;5.20;;;2.50;;
1591;SDS011;789;51.612;7.510;2023-08-21T01:56:22;7.00;;;3.07;;
1591;SDS011;789;51.612;7.510;2023-08-21T01:58:50;7.73;;;2.90;;
1591;SDS011;789;51.612;7.510;2023-08-21T02:01:16;5.33;;;2.30;;
1591;SDS011;789;51.612;7.510;2023-08-21T02:03:44;5.07;;;2.20;;
1591;SDS011;789;51.612;7.510;2023-08-21T02:06:11;5.63;;;2.73;;
1591;SDS011;789;51.612;7.510;2023-08-21T02:08:38;3.77;;;2.10;;
1591;SDS011;789;51.612;7.510;2023-08-21T02:11:05;3.80;;;2.20;;
1591;SDS011;789;51.612;7.510;2023-08-21T02:13:32;6.43;;;2.30;;
1591;SDS011;789;51.612;7.510;2023-08-21T02:16:00;5.90;;;2.10;;
1591;SDS011;789;51.612;7.510;2023-08-21T02:18:27;6.97;;;2.53;;
1591;SDS011;789;51.612;7.510;2023-08-21T02:20:56;5.70;;;2.60;;
1591;SDS011;789;51.612;7.510;2023-08-21T02:23:23;3.33;;;2.33;;
1591;SDS011;789;51.612;7.510;2023-08-21T02:25:50;5.07;;;2.60;;
1591;SDS011;789;51.612;7.510;2023-08-21T02:28:17;6.60;;;2.60;;
1591;SDS011;789;51.612;7.510;2023-08-21T02:30:44;4.53;;;2.70;;
1591;SDS011;789;51.612;7.510;2023-08-21T02:33:13;6.30;;;2.40;;
1591;SDS011;789;51.612;7.510;2023-08-21T02:35:39;3.17;;;2.10;;
1591;SDS011;789;51.612;7.510;2023-08-21T02:38:06;5.20;;;2.70;;
1591;SDS011;789;51.612;7.510;2023-08-21T02:40:33;5.63;;;2.40;;
1591;SDS011;789;51.612;7.510;2023-08-21T02:43:00;9.67;;;2.57;;
1591;SDS011;789;51.612;7.510;2023-08-21T02:45:27;3.47;;;2.50;;
1591;SDS011;789;51.612;7.510;2023-08-21T02:47:53;3.90;;;2.33;;
1591;SDS011;789;51.612;7.510;2023-08-21T02:50:22;8.37;;;2.27;;
1591;SDS011;789;51.612;7.510;2023-08-21T02:52:48;8.00;;;3.00;;
1591;SDS011;789;51.612;7.510;2023-08-21T02:55:15;4.70;;;2.50;;
1591;SDS011;789;51.612;7.510;2023-08-21T02:57:42;5.23;;;2.43;;
1591;SDS011;789;51.612;7.510;2023-08-21T03:00:10;6.13;;;2.63;;
1591;SDS011;789;51.612;7.510;2023-08-21T03:02:39;5.10;;;2.47;;
1591;SDS011;789;51.612;7.510;2023-08-21T03:05:08;5.10;;;2.43;;
1591;SDS011;789;51.612;7.510;2023-08-21T03:07:37;3.40;;;2.47;;
1591;SDS011;789;51.612;7.510;2023-08-21T03:10:04;5.37;;;2.53;;
1591;SDS011;789;51.612;7.510;2023-08-21T03:12:32;6.90;;;2.67;;
1591;SDS011;789;51.612;7.510;2023-08-21T03:14:58;5.60;;;2.40;;
1591;SDS011;789;51.612;7.510;2023-08-21T03:17:25;4.53;;;2.50;;
1591;SDS011;789;51.612;7.510;2023-08-21T03:19:52;4.43;;;2.73;;
1591;SDS011;789;51.612;7.510;2023-08-21T03:22:19;5.10;;;2.80;;
1591;SDS011;789;51.612;7.510;2023-08-21T03:24:47;6.70;;;2.77;;
1591;SDS011;789;51.612;7.510;2023-08-21T03:27:16;4.83;;;2.90;;
1591;SDS011;789;51.612;7.510;2023-08-21T03:29:43;5.13;;;2.70;;
1591;SDS011;789;51.612;7.510;2023-08-21T03:32:13;5.47;;;3.17;;
1591;SDS011;789;51.612;7.510;2023-08-21T03:34:41;4.90;;;2.83;;
1591;SDS011;789;51.612;7.510;2023-08-21T03:37:08;6.03;;;2.70;;
1591;SDS011;789;51.612;7.510;2023-08-21T03:39:35;7.50;;;3.90;;
1591;SDS011;789;51.612;7.510;2023-08-21T03:42:03;4.63;;;2.77;;
1591;SDS011;789;51.612;7.510;2023-08-21T03:44:30;7.33;;;3.20;;
1591;SDS011;789;51.612;7.510;2023-08-21T03:46:58;7.00;;;3.00;;
1591;SDS011;789;51.612;7.510;2023-08-21T03:49:25;6.53;;;3.30;;
1591;SDS011;789;51.612;7.510;2023-08-21T03:51:52;6.47;;;3.20;;
1591;SDS011;789;51.612;7.510;2023-08-21T03:54:18;9.30;;;3.50;;
1591;SDS011;789;51.612;7.510;2023-08-21T03:56:45;4.97;;;2.90;;
1591;SDS011;789;51.612;7.510;2023-08-21T03:59:13;5.37;;;2.70;;
1591;SDS011;789;51.612;7.510;2023-08-21T04:01:40;5.90;;;3.10;;
1591;SDS011;789;51.612;7.510;2023-08-21T04:04:07;5.23;;;2.80;;
1591;SDS011;789;51.612;7.510;2023-08-21T04:06:34;5.83;;;3.20;;
1591;SDS011;789;51.612;7.510;2023-08-21T04:09:00;14.23;;;4.13;;
1591;SDS011;789;51.612;7.510;2023-08-21T04:11:31;5.37;;;2.90;;
1591;SDS011;789;51.612;7.510;2023-08-21T04:13:59;8.30;;;3.60;;
1591;SDS011;789;51.612;7.510;2023-08-21T04:16:28;6.00;;;2.83;;
1591;SDS011;789;51.612;7.510;2023-08-21T04:18:55;4.77;;;2.83;;
1591;SDS011;789;51.612;7.510;2023-08-21T04:21:22;9.37;;;3.90;;
1591;SDS011;789;51.612;7.510;2023-08-21T04:23:49;4.73;;;3.30;;
1591;SDS011;789;51.612;7.510;2023-08-21T04:26:16;10.13;;;3.43;;
1591;SDS011;789;51.612;7.510;2023-08-21T04:28:43;5.80;;;3.60;;
1591;SDS011;789;51.612;7.510;2023-08-21T04:31:09;7.40;;;3.30;;
1591;SDS011;789;51.612;7.510;2023-08-21T04:33:38;12.30;;;4.17;;
1591;SDS011;789;51.612;7.510;2023-08-21T04:36:05;8.87;;;3.77;;
1591;SDS011;789;51.612;7.510;2023-08-21T04:38:33;6.63;;;4.20;;
1591;SDS011;789;51.612;7.510;2023-08-21T04:41:06;8.47;;;4.13;;
1591;SDS011;789;51.612;7.510;2023-08-21T04:43:33;8.40;;;4.63;;
1591;SDS011;789;51.612;7.510;2023-08-21T04:46:00;11.17;;;4.10;;
1591;SDS011;789;51.612;7.510;2023-08-21T04:48:27;8.20;;;4.07;;
1591;SDS011;789;51.612;7.510;2023-08-21T04:50:55;6.67;;;3.87;;
1591;SDS011;789;51.612;7.510;2023-08-21T04:53:21;5.20;;;3.70;;
1591;SDS011;789;51.612;7.510;2023-08-21T04:55:48;6.10;;;4.10;;
1591;SDS011;789;51.612;7.510;2023-08-21T04:58:15;6.03;;;2.90;;
1591;SDS011;789;51.612;7.510;2023-08-21T05:00:44;11.77;;;4.37;;
1591;SDS011;789;51.612;7.510;2023-08-21T05:03:10;7.70;;;4.00;;
1591;SDS011;789;51.612;7.510;2023-08-21T05:05:38;9.33;;;4.63;;
1591;SDS011;789;51.612;7.510;2023-08-21T05:08:06;8.47;;;4.03;;
1591;SDS011;789;51.612;7.510;2023-08-21T05:10:33;7.37;;;3.43;;
1591;SDS011;789;51.612;7.510;2023-08-21T05:13:00;7.67;;;4.00;;
1591;SDS011;789;51.612;7.510;2023-08-21T05:15:27;8.50;;;4.10;;
1591;SDS011;789;51.612;7.510;2023-08-21T05:17:54;11.83;;;3.97;;
1591;SDS011;789;51.612;7.510;2023-08-21T05:20:21;5.93;;;3.57;;
1591;SDS011;789;51.612;7.510;2023-08-21T05:22:48;8.70;;;3.60;;
1591;SDS011;789;51.612;7.510;2023-08-21T05:25:17;8.43;;;3.50;;
1591;SDS011;789;51.612;7.510;2023-08-21T05:27:44;5.90;;;3.77;;
1591;SDS011;789;51.612;7.510;2023-08-21T05:30:11;9.73;;;5.30;;
1591;SDS011;789;51.612;7.510;2023-08-21T05:32:38;8.53;;;4.57;;
1591;SDS011;789;51.612;7.510;2023-08-21T05:35:05;9.47;;;4.30;;
1591;SDS011;789;51.612;7.510;2023-08-21T05:37:33;9.60;;;4.60;;
1591;SDS011;789;51.612;7.510;2023-08-21T05:40:00;6.93;;;4.20;;
1591;SDS011;789;51.612;7.510;2023-08-21T05:42:30;13.47;;;4.77;;
1591;SDS011;789;51.612;7.510;2023-08-21T05:44:56;12.50;;;4.90;;
1591;SDS011;789;51.612;7.510;2023-08-21T05:47:25;8.13;;;4.27;;
1591;SDS011;789;51.612;7.510;2023-08-21T05:49:52;9.33;;;4.53;;
1591;SDS011;789;51.612;7.510;2023-08-21T05:52:19;29.07;;;5.97;;
1591;SDS011;789;51.612;7.510;2023-08-21T05:54:47;6.67;;;4.00;;
1591;SDS011;789;51.612;7.510;2023-08-21T05:57:13;9.83;;;4.10;;
1591;SDS011;789;51.612;7.510;2023-08-21T05:59:44;7.97;;;4.37;;
1591;SDS011;789;51.612;7.510;2023-08-21T06:02:12;10.60;;;4.97;;
1591;SDS011;789;51.612;7.510;2023-08-21T06:04:39;11.47;;;5.03;;
1591;SDS011;789;51.612;7.510;2023-08-21T06:07:07;10.50;;;5.00;;
1591;SDS011;789;51.612;7.510;2023-08-21T06:09:37;6.43;;;4.03;;
1591;SDS011;789;51.612;7.510;2023-08-21T06:12:05;8.63;;;4.50;;
1591;SDS011;789;51.612;7.510;2023-08-21T06:14:32;9.10;;;4.23;;
1591;SDS011;789;51.612;7.510;2023-08-21T06:17:02;7.40;;;4.03;;
1591;SDS011;789;51.612;7.510;2023-08-21T06:19:30;11.63;;;5.00;;
1591;SDS011;789;51.612;7.510;2023-08-21T06:21:57;9.80;;;6.00;;
1591;SDS011;789;51.612;7.510;2023-08-21T06:24:24;12.40;;;8.90;;
1591;SDS011;789;51.612;7.510;2023-08-21T06:26:51;6.43;;;3.50;;
1591;SDS011;789;51.612;7.510;2023-08-21T06:29:18;13.33;;;3.87;;
1591;SDS011;789;51.612;7.510;2023-08-21T06:31:45;9.17;;;3.47;;
1591;SDS011;789;51.612;7.510;2023-08-21T06:34:14;6.33;;;3.80;;
1591;SDS011;789;51.612;7.510;2023-08-21T06:36:42;11.37;;;3.33;;
1591;SDS011;789;51.612;7.510;2023-08-21T06:39:09;7.60;;;3.90;;
1591;SDS011;789;51.612;7.510;2023-08-21T06:41:36;6.00;;;3.23;;
1591;SDS011;789;51.612;7.510;2023-08-21T06:44:03;8.60;;;3.87;;
1591;SDS011;789;51.612;7.510;2023-08-21T06:46:30;4.90;;;3.20;;
1591;SDS011;789;51.612;7.510;2023-08-21T06:48:57;28.80;;;9.30;;
1591;SDS011;789;51.612;7.510;2023-08-21T06:51:25;11.73;;;3.90;;
1591;SDS011;789;51.612;7.510;2023-08-21T06:53:52;6.70;;;3.97;;
1591;SDS011;789;51.612;7.510;2023-08-21T06:56:19;9.00;;;3.70;;
1591;SDS011;789;51.612;7.510;2023-08-21T06:58:46;5.60;;;4.00;;
1591;SDS011;789;51.612;7.510;2023-08-21T07:01:15;7.73;;;3.37;;
1591;SDS011;789;51.612;7.510;2023-08-21T07:03:43;8.20;;;3.80;;
1591;SDS011;789;51.612;7.510;2023-08-21T07:06:10;4.90;;;2.97;;
1591;SDS011;789;51.612;7.510;2023-08-21T07:08:38;5.93;;;3.27;;
1591;SDS011;789;51.612;7.510;2023-08-21T07:11:06;10.60;;;3.60;;
1591;SDS011;789;51.612;7.510;2023-08-21T07:13:37;3.70;;;2.53;;
1591;SDS011;789;51.612;7.510;2023-08-21T07:16:04;10.17;;;3.27;;
1591;SDS011;789;51.612;7.510;2023-08-21T07:18:31;5.50;;;2.60;;
1591;SDS011;789;51.612;7.510;2023-08-21T07:20:59;9.13;;;3.20;;
1591;SDS011;789;51.612;7.510;2023-08-21T07:23:26;5.23;;;2.93;;
1591;SDS011;789;51.612;7.510;2023-08-21T07:25:54;10.23;;;2.57;;
1591;SDS011;789;51.612;7.510;2023-08-21T07:28:21;8.23;;;3.27;;
1591;SDS011;789;51.612;7.510;2023-08-21T07:30:48;4.30;;;2.70;;
1591;SDS011;789;51.612;7.510;2023-08-21T07:33:21;5.90;;;2.83;;
1591;SDS011;789;51.612;7.510;2023-08-21T07:35:47;4.43;;;2.43;;
1591;SDS011;789;51.612;7.510;2023-08-21T07:38:22;9.77;;;2.87;;
1591;SDS011;789;51.612;7.510;2023-08-21T07:40:49;3.03;;;2.53;;
1591;SDS011;789;51.612;7.510;2023-08-21T07:43:18;7.93;;;3.17;;
1591;SDS011;789;51.612;7.510;2023-08-21T07:45:45;5.70;;;2.80;;
1591;SDS011;789;51.612;7.510;2023-08-21T07:48:11;4.30;;;2.80;;
1591;SDS011;789;51.612;7.510;2023-08-21T07:50:38;6.63;;;3.60;;
1591;SDS011;789;51.612;7.510;2023-08-21T07:53:05;6.80;;;3.20;;
1591;SDS011;789;51.612;7.510;2023-08-21T07:55:32;7.13;;;3.20;;
1591;SDS011;789;51.612;7.510;2023-08-21T07:57:58;11.10;;;3.80;;
1591;SDS011;789;51.612;7.510;2023-08-21T08:00:27;7.20;;;3.17;;
1591;SDS011;789;51.612;7.510;2023-08-21T08:02:55;7.30;;;2.83;;
1591;SDS011;789;51.612;7.510;2023-08-21T08:05:21;6.27;;;2.87;;
1591;SDS011;789;51.612;7.510;2023-08-21T08:07:48;6.73;;;3.10;;
1591;SDS011;789;51.612;7.510;2023-08-21T08:10:15;9.80;;;2.57;;
1591;SDS011;789;51.612;7.510;2023-08-21T08:12:42;22.40;;;4.17;;
1591;SDS011;789;51.612;7.510;2023-08-21T08:15:09;7.07;;;3.00;;
1591;SDS011;789;51.612;7.510;2023-08-21T08:17:37;9.33;;;3.13;;
1591;SDS011;789;51.612;7.510;2023-08-21T08:20:06;6.30;;;3.00;;
1591;SDS011;789;51.612;7.510;2023-08-21T08:22:34;5.93;;;2.90;;
1591;SDS011;789;51.612;7.510;2023-08-21T08:25:01;13.53;;;3.40;;
1591;SDS011;789;51.612;7.510;2023-08-21T08:27:27;7.90;;;3.10;;
1591;SDS011;789;51.612;7.510;2023-08-21T08:29:55;13.83;;;3.47;;
1591;SDS011;789;51.612;7.510;2023-08-21T08:32:21;8.10;;;2.83;;
1591;SDS011;789;51.612;7.510;2023-08-21T08:34:50;7.20;;;3.00;;
1591;SDS011;789;51.612;7.510;2023-08-21T08:37:16;5.90;;;3.33;;
1591;SDS011;789;51.612;7.510;2023-08-21T08:39:43;3.57;;;2.23;;
1591;SDS011;789;51.612;7.510;2023-08-21T08:42:12;6.07;;;2.93;;
1591;SDS011;789;51.612;7.510;2023-08-21T08:44:41;6.93;;;3.20;;
1591;SDS011;789;51.612;7.510;2023-08-21T08:47:09;3.40;;;2.63;;
1591;SDS011;789;51.612;7.510;2023-08-21T08:49:37;6.43;;;2.67;;
1591;SDS011;789;51.612;7.510;2023-08-21T08:52:08;6.30;;;3.00;;
1591;SDS011;789;51.612;7.510;2023-08-21T08:54:36;5.90;;;2.70;;
1591;SDS011;789;51.612;7.510;2023-08-21T08:57:03;9.97;;;3.57;;
1591;SDS011;789;51.612;7.510;2023-08-21T08:59:30;8.13;;;2.87;;
1591;SDS011;789;51.612;7.510;2023-08-21T09:01:57;8.13;;;3.07;;
1591;SDS011;789;51.612;7.510;2023-08-21T09:04:26;11.37;;;2.77;;
1591;SDS011;789;51.612;7.510;2023-08-21T09:07:05;5.00;;;2.80;;
1591;SDS011;789;51.612;7.510;2023-08-21T09:09:37;7.17;;;3.03;;
1591;SDS011;789;51.612;7.510;2023-08-21T09:12:09;5.27;;;2.87;;
1591;SDS011;789;51.612;7.510;2023-08-21T09:14:37;5.17;;;2.60;;
1591;SDS011;789;51.612;7.510;2023-08-21T09:17:05;5.97;;;2.90;;
1591;SDS011;789;51.612;7.510;2023-08-21T09:19:32;7.30;;;3.20;;
1591;SDS011;789;51.612;7.510;2023-08-21T09:22:03;5.00;;;2.60;;
1591;SDS011;789;51.612;7.510;2023-08-21T09:24:36;8.70;;;3.03;;
1591;SDS011;789;51.612;7.510;2023-08-21T09:27:03;6.53;;;2.50;;
1591;SDS011;789;51.612;7.510;2023-08-21T09:29:42;3.60;;;2.40;;
1591;SDS011;789;51.612;7.510;2023-08-21T09:32:09;9.70;;;2.97;;
1591;SDS011;789;51.612;7.510;2023-08-21T09:34:36;4.60;;;2.57;;
1591;SDS011;789;51.612;7.510;2023-08-21T09:37:08;9.60;;;2.43;;
1591;SDS011;789;51.612;7.510;2023-08-21T09:39:36;7.00;;;2.43;;
1591;SDS011;789;51.612;7.510;2023-08-21T09:42:07;5.90;;;2.80;;
1591;SDS011;789;51.612;7.510;2023-08-21T09:44:35;4.90;;;2.60;;
1591;SDS011;789;51.612;7.510;2023-08-21T09:47:04;7.07;;;2.07;;
1591;SDS011;789;51.612;7.510;2023-08-21T09:49:34;6.20;;;2.17;;
1591;SDS011;789;51.612;7.510;2023-08-21T09:52:03;5.97;;;2.90;;
1591;SDS011;789;51.612;7.510;2023-08-21T09:54:37;6.70;;;2.60;;
1591;SDS011;789;51.612;7.510;2023-08-21T09:57:04;5.43;;;2.17;;
1591;SDS011;789;51.612;7.510;2023-08-21T09:59:32;4.47;;;2.20;;
1591;SDS011;789;51.612;7.510;2023-08-21T10:02:04;6.23;;;2.07;;
1591;SDS011;789;51.612;7.510;2023-08-21T10:04:32;9.57;;;4.50;;
1591;SDS011;789;51.612;7.510;2023-08-21T10:07:04;6.90;;;2.20;;
1591;SDS011;789;51.612;7.510;2023-08-21T10:09:33;4.30;;;2.00;;
1591;SDS011;789;51.612;7.510;2023-08-21T10:12:04;4.30;;;2.30;;
1591;SDS011;789;51.612;7.510;2023-08-21T10:14:32;7.43;;;2.63;;
1591;SDS011;789;51.612;7.510;2023-08-21T10:17:02;5.03;;;2.50;;
1591;SDS011;789;51.612;7.510;2023-08-21T10:19:32;7.27;;;2.50;;
1591;SDS011;789;51.612;7.510;2023-08-21T10:21:59;5.23;;;2.37;;
1591;SDS011;789;51.612;7.510;2023-08-21T10:24:26;6.30;;;2.67;;
1591;SDS011;789;51.612;7.510;2023-08-21T10:26:57;4.43;;;2.50;;
1591;SDS011;789;51.612;7.510;2023-08-21T10:29:26;7.30;;;2.67;;
1591;SDS011;789;51.612;7.510;2023-08-21T10:32:00;3.30;;;1.70;;
1591;SDS011;789;51.612;7.510;2023-08-21T10:34:32;4.07;;;2.40;;
1591;SDS011;789;51.612;7.510;2023-08-21T10:37:03;3.53;;;1.97;;
1591;SDS011;789;51.612;7.510;2023-08-21T10:39:39;3.77;;;2.30;;
1591;SDS011;789;51.612;7.510;2023-08-21T10:42:19;3.97;;;2.10;;
1591;SDS011;789;51.612;7.510;2023-08-21T10:44:47;4.73;;;2.30;;
1591;SDS011;789;51.612;7.510;2023-08-21T10:47:17;4.83;;;2.20;;
1591;SDS011;789;51.612;7.510;2023-08-21T10:49:46;3.30;;;2.43;;
1591;SDS011;789;51.612;7.510;2023-08-21T10:52:14;5.13;;;2.67;;
1591;SDS011;789;51.612;7.510;2023-08-21T10:54:46;5.53;;;2.30;;
1591;SDS011;789;51.612;7.510;2023-08-21T10:57:17;6.37;;;2.57;;
1591;SDS011;789;51.612;7.510;2023-08-21T10:59:52;4.53;;;2.27;;
1591;SDS011;789;51.612;7.510;2023-08-21T11:02:21;6.73;;;2.30;;
1591;SDS011;789;51.612;7.510;2023-08-21T11:04:48;3.90;;;2.33;;
1591;SDS011;789;51.612;7.510;2023-08-21T11:07:15;3.87;;;2.10;;
1591;SDS011;789;51.612;7.510;2023-08-21T11:09:42;7.17;;;2.23;;
1591;SDS011;789;51.612;7.510;2023-08-21T11:12:10;4.43;;;2.20;;
1591;SDS011;789;51.612;7.510;2023-08-21T11:14:40;4.80;;;2.20;;
1591;SDS011;789;51.612;7.510;2023-08-21T11:17:08;4.77;;;2.63;;
1591;SDS011;789;51.612;7.510;2023-08-21T11:19:36;6.00;;;2.27;;
1591;SDS011;789;51.612;7.510;2023-08-21T11:22:06;4.60;;;2.40;;
1591;SDS011;789;51.612;7.510;2023-08-21T11:24:41;5.53;;;2.07;;
1591;SDS011;789;51.612;7.510;2023-08-21T11:27:09;3.30;;;2.20;;
1591;SDS011;789;51.612;7.510;2023-08-21T11:29:40;4.80;;;2.13;;
1591;SDS011;789;51.612;7.510;2023-08-21T11:32:12;5.17;;;2.60;;
1591;SDS011;789;51.612;7.510;2023-08-21T11:34:48;2.90;;;2.20;;
1591;SDS011;789;51.612;7.510;2023-08-21T11:37:16;4.97;;;2.43;;
1591;SDS011;789;51.612;7.510;2023-08-21T11:39:44;4.10;;;2.03;;
1591;SDS011;789;51.612;7.510;2023-08-21T11:42:19;3.23;;;2.10;;
1591;SDS011;789;51.612;7.510;2023-08-21T11:44:48;5.13;;;2.63;;
1591;SDS011;789;51.612;7.510;2023-08-21T11:47:20;6.63;;;2.47;;
1591;SDS011;789;51.612;7.510;2023-08-21T11:49:49;4.20;;;2.27;;
1591;SDS011;789;51.612;7.510;2023-08-21T11:52:22;5.50;;;2.20;;
1591;SDS011;789;51.612;7.510;2023-08-21T11:54:51;5.97;;;2.43;;
1591;SDS011;789;51.612;7.510;2023-08-21T11:57:20;3.13;;;2.00;;
1591;SDS011;789;51.612;7.510;2023-08-21T11:59:50;6.70;;;2.80;;
1591;SDS011;789;51.612;7.510;2023-08-21T12:02:17;2.70;;;2.00;;
1591;SDS011;789;51.612;7.510;2023-08-21T12:04:51;4.80;;;2.30;;
1591;SDS011;789;51.612;7.510;2023-08-21T12:07:18;4.07;;;2.80;;
1591;SDS011;789;51.612;7.510;2023-08-21T12:09:48;7.03;;;2.63;;
1591;SDS011;789;51.612;7.510;2023-08-21T12:12:17;6.17;;;2.57;;
1591;SDS011;789;51.612;7.510;2023-08-21T12:14:45;5.23;;;2.50;;
1591;SDS011;789;51.612;7.510;2023-08-21T12:17:12;3.67;;;2.40;;
1591;SDS011;789;51.612;7.510;2023-08-21T12:19:40;4.33;;;2.53;;
1591;SDS011;789;51.612;7.510;2023-08-21T12:22:08;6.33;;;2.73;;
1591;SDS011;789;51.612;7.510;2023-08-21T12:24:37;3.40;;;2.60;;
1591;SDS011;789;51.612;7.510;2023-08-21T12:27:06;5.83;;;2.80;;
1591;SDS011;789;51.612;7.510;2023-08-21T12:29:35;4.43;;;2.50;;
1591;SDS011;789;51.612;7.510;2023-08-21T12:32:03;4.00;;;2.80;;
1591;SDS011;789;51.612;7.510;2023-08-21T12:34:31;5.10;;;3.20;;
1591;SDS011;789;51.612;7.510;2023-08-21T12:37:00;5.33;;;2.73;;
1591;SDS011;789;51.612;7.510;2023-08-21T12:39:28;7.90;;;5.20;;
1591;SDS011;789;51.612;7.510;2023-08-21T12:41:55;5.33;;;2.97;;
1591;SDS011;789;51.612;7.510;2023-08-21T12:44:22;6.00;;;2.90;;
1591;SDS011;789;51.612;7.510;2023-08-21T12:46:48;6.60;;;3.07;;
1591;SDS011;789;51.612;7.510;2023-08-21T12:49:16;4.87;;;2.40;;
1591;SDS011;789;51.612;7.510;2023-08-21T12:51:44;4.97;;;2.80;;
1591;SDS011;789;51.612;7.510;2023-08-21T12:54:12;4.70;;;2.87;;
1591;SDS011;789;51.612;7.510;2023-08-21T12:56:39;6.70;;;2.80;;
1591;SDS011;789;51.612;7.510;2023-08-21T12:59:05;6.93;;;2.80;;
1591;SDS011;789;51.612;7.510;2023-08-21T13:01:32;6.33;;;2.90;;
1591;SDS011;789;51.612;7.510;2023-08-21T13:04:00;4.87;;;3.00;;
1591;SDS011;789;51.612;7.510;2023-08-21T13:06:28;7.20;;;3.07;;
1591;SDS011;789;51.612;7.510;2023-08-21T13:08:54;5.00;;;3.13;;
1591;SDS011;789;51.612;7.510;2023-08-21T13:11:24;4.70;;;2.93;;
1591;SDS011;789;51.612;7.510;2023-08-21T13:13:54;6.23;;;3.60;;
1591;SDS011;789;51.612;7.510;2023-08-21T13:16:21;5.67;;;3.57;;
1591;SDS011;789;51.612;7.510;2023-08-21T13:18:48;7.53;;;3.20;;
1591;SDS011;789;51.612;7.510;2023-08-21T13:21:17;4.20;;;3.10;;
1591;SDS011;789;51.612;7.510;2023-08-21T13:23:44;5.20;;;3.70;;
1591;SDS011;789;51.612;7.510;2023-08-21T13:26:11;11.40;;;3.43;;
1591;SDS011;789;51.612;7.510;2023-08-21T13:28:39;3.43;;;2.73;;
1591;SDS011;789;51.612;7.510;2023-08-21T13:31:05;7.90;;;3.13;;
1591;SDS011;789;51.612;7.510;2023-08-21T13:33:43;4.83;;;2.13;;
1591;SDS011;789;51.612;7.510;2023-08-21T13:36:11;5.53;;;2.40;;
1591;SDS011;789;51.612;7.510;2023-08-21T13:38:38;5.50;;;2.50;;
1591;SDS011;789;51.612;7.510;2023-08-21T13:41:04;7.87;;;2.40;;
1591;SDS011;789;51.612;7.510;2023-08-21T13:43:32;4.47;;;2.60;;
1591;SDS011;789;51.612;7.510;2023-08-21T13:46:01;6.90;;;2.37;;
1591;SDS011;789;51.612;7.510;2023-08-21T13:48:28;6.10;;;2.80;;
1591;SDS011;789;51.612;7.510;2023-08-21T13:50:57;6.70;;;3.30;;
1591;SDS011;789;51.612;7.510;2023-08-21T13:53:24;5.40;;;2.83;;
1591;SDS011;789;51.612;7.510;2023-08-21T13:55:51;8.13;;;3.10;;
1591;SDS011;789;51.612;7.510;2023-08-21T13:58:17;3.97;;;2.37;;
1591;SDS011;789;51.612;7.510;2023-08-21T14:00:44;7.23;;;2.93;;
1591;SDS011;789;51.612;7.510;2023-08-21T14:03:12;4.80;;;3.13;;
1591;SDS011;789;51.612;7.510;2023-08-21T14:05:42;5.13;;;3.13;;
1591;SDS011;789;51.612;7.510;2023-08-21T14:08:09;5.60;;;2.83;;
1591;SDS011;789;51.612;7.510;2023-08-21T14:10:36;4.13;;;2.47;;
1591;SDS011;789;51.612;7.510;2023-08-21T14:13:04;7.20;;;2.90;;
1591;SDS011;789;51.612;7.510;2023-08-21T14:15:32;5.83;;;2.83;;
1591;SDS011;789;51.612;7.510;2023-08-21T14:17:59;7.90;;;3.10;;
1591;SDS011;789;51.612;7.510;2023-08-21T14:20:39;9.93;;;3.10;;
1591;SDS011;789;51.612;7.510;2023-08-21T14:23:06;7.10;;;3.10;;
1591;SDS011;789;51.612;7.510;2023-08-21T14:25:38;7.73;;;3.10;;
1591;SDS011;789;51.612;7.510;2023-08-21T14:28:05;8.23;;;3.70;;
1591;SDS011;789;51.612;7.510;2023-08-21T14:30:33;5.00;;;2.90;;
1591;SDS011;789;51.612;7.510;2023-08-21T14:33:03;5.80;;;2.93;;
1591;SDS011;789;51.612;7.510;2023-08-21T14:35:34;6.43;;;3.27;;
1591;SDS011;789;51.612;7.510;2023-08-21T14:38:01;9.90;;;3.20;;
1591;SDS011;789;51.612;7.510;2023-08-21T14:40:28;5.33;;;3.10;;
1591;SDS011;789;51.612;7.510;2023-08-21T14:42:55;5.60;;;3.20;;
1591;SDS011;789;51.612;7.510;2023-08-21T14:45:21;5.30;;;3.07;;
1591;SDS011;789;51.612;7.510;2023-08-21T14:47:48;5.40;;;3.20;;
1591;SDS011;789;51.612;7.510;2023-08-21T14:50:15;5.30;;;3.00;;
1591;SDS011;789;51.612;7.510;2023-08-21T14:52:44;5.17;;;3.60;;
1591;SDS011;789;51.612;7.510;2023-08-21T14:55:13;6.27;;;3.53;;
1591;SDS011;789;51.612;7.510;2023-08-21T14:57:40;6.93;;;3.53;;
1591;SDS011;789;51.612;7.510;2023-08-21T15:00:07;5.90;;;3.47;;
1591;SDS011;789;51.612;7.510;2023-08-21T15:02:35;6.50;;;2.53;;
1591;SDS011;789;51.612;7.510;2023-08-21T15:05:02;5.50;;;2.97;;
1591;SDS011;789;51.612;7.510;2023-08-21T15:07:31;7.93;;;5.70;;
1591;SDS011;789;51.612;7.510;2023-08-21T15:09:59;5.50;;;2.80;;
1591;SDS011;789;51.612;7.510;2023-08-21T15:12:26;6.37;;;2.70;;
1591;SDS011;789;51.612;7.510;2023-08-21T15:14:53;3.57;;;3.00;;
1591;SDS011;789;51.612;7.510;2023-08-21T15:17:20;6.37;;;2.73;;
1591;SDS011;789;51.612;7.510;2023-08-21T15:19:48;5.80;;;3.03;;
1591;SDS011;789;51.612;7.510;2023-08-21T15:22:17;3.33;;;2.47;;
1591;SDS011;789;51.612;7.510;2023-08-21T15:24:46;7.83;;;3.83;;
1591;SDS011;789;51.612;7.510;2023-08-21T15:27:14;6.60;;;3.00;;
1591;SDS011;789;51.612;7.510;2023-08-21T15:29:42;4.23;;;2.70;;
1591;SDS011;789;51.612;7.510;2023-08-21T15:32:09;5.60;;;3.20;;
1591;SDS011;789;51.612;7.510;2023-08-21T15:34:40;5.70;;;3.10;;